sensor_id;sensor_type;location;lat;lon;timestamp;pressure;altitude;pressure_sealevel;temperature;humidity
19553;BME280;9420;50.876;7.012;2023-02-12T00:01:25;103343.63;;;16.43;100.00
19553;BME280;9420;50.876;7.012;2023-02-12T00:03:54;103354.13;;;16.58;100.00
19553;BME280;9420;50.876;7.012;2023-02-12T00:06:22;103347.03;;;16.55;100.00
19553;BME280;9420;50.876;7.012;2023-02-12T00:08:51;103351.53;;;16.52;100.00
19553;BME280;9420;50.876;7.012;2023-02-12T00:11:22;103347.19;;;16.42;100.00
19553;BME280;9420;50.876;7.012;2023-02-12T00:13:50;103349.03;;;16.37;100.00
19553;BME280;9420;50.876;7.012;2023-02-12T00:16:22;103347.69;;;16.00;100.00
19553;BME280;9420;50.876;7.012;2023-02-12T00:18:52;103350.91;;;16.26;100.00
19553;BME280;9420;50.876;7.012;2023-02-12T00:21:20;103341.25;;;16.17;100.00
19553;BME280;9420;50.876;7.012;2023-02-12T00:23:48;103351.00;;;16.18;100.00
19553;BME280;9420;50.876;7.012;2023-02-12T00:26:18;103346.50;;;16.25;100.00
19553;BME280;9420;50.876;7.012;2023-02-12T00:28:48;103341.63;;;15.84;100.00
19553;BME280;9420;50.876;7.012;2023-02-12T00:31:18;103340.88;;;16.53;100.00
19553;BME280;9420;50.876;7.012;2023-02-12T00:33:45;103345.47;;;16.38;100.00
19553;BME280;9420;50.876;7.012;2023-02-12T00:36:15;103348.34;;;16.18;100.00
19553;BME280;9420;50.876;7.012;2023-02-12T00:38:44;103349.34;;;16.08;100.00
19553;BME280;9420;50.876;7.012;2023-02-12T00:41:12;103345.84;;;16.03;100.00
19553;BME280;9420;50.876;7.012;2023-02-12T00:43:39;103353.66;;;16.18;100.00
19553;BME280;9420;50.876;7.012;2023-02-12T00:46:07;103345.72;;;16.17;100.00
19553;BME280;9420;50.876;7.012;2023-02-12T00:48:35;103348.91;;;16.46;100.00
19553;BME280;9420;50.876;7.012;2023-02-12T00:51:03;103349.13;;;16.28;100.00
19553;BME280;9420;50.876;7.012;2023-02-12T00:53:31;103354.50;;;16.22;100.00
19553;BME280;9420;50.876;7.012;2023-02-12T00:55:59;103353.75;;;16.09;100.00
19553;BME280;9420;50.876;7.012;2023-02-12T00:58:27;103344.00;;;16.10;100.00
19553;BME280;9420;50.876;7.012;2023-02-12T01:00:54;103342.97;;;16.21;100.00
19553;BME280;9420;50.876;7.012;2023-02-12T01:03:23;103338.41;;;16.34;100.00
19553;BME280;9420;50.876;7.012;2023-02-12T01:05:51;103348.38;;;16.15;100.00
19553;BME280;9420;50.876;7.012;2023-02-12T01:08:18;103352.84;;;16.15;100.00
19553;BME280;9420;50.876;7.012;2023-02-12T01:10:54;103349.38;;;16.05;100.00
19553;BME280;9420;50.876;7.012;2023-02-12T01:13:21;103346.78;;;15.99;100.00
19553;BME280;9420;50.876;7.012;2023-02-12T01:16:01;103352.22;;;15.87;100.00
19553;BME280;9420;50.876;7.012;2023-02-12T01:18:30;103350.44;;;15.86;100.00
19553;BME280;9420;50.876;7.012;2023-02-12T01:20:57;103342.50;;;15.84;100.00
19553;BME280;9420;50.876;7.012;2023-02-12T01:23:24;103354.84;;;15.92;100.00
19553;BME280;9420;50.876;7.012;2023-02-12T01:25:51;103354.72;;;16.04;100.00
19553;BME280;9420;50.876;7.012;2023-02-12T01:28:19;103351.19;;;16.02;100.00
19553;BME280;9420;50.876;7.012;2023-02-12T01:30:46;103350.25;;;16.06;100.00
19553;BME280;9420;50.876;7.012;2023-02-12T01:33:13;103351.06;;;16.14;100.00
19553;BME280;9420;50.876;7.012;2023-02-12T01:35:41;103345.72;;;16.17;100.00
19553;BME280;9420;50.876;7.012;2023-02-12T01:38:08;103343.13;;;16.11;100.00
19553;BME280;9420;50.876;7.012;2023-02-12T01:40:35;103342.25;;;16.09;100.00
19553;BME280;9420;50.876;7.012;2023-02-12T01:43:05;103338.78;;;16.01;100.00
19553;BME280;9420;50.876;7.012;2023-02-12T01:45:51;103331.75;;;17.84;99.85
19553;BME280;9420;50.876;7.012;2023-02-12T01:48:24;103343.06;;;16.17;100.00
19553;BME280;9420;50.876;7.012;2023-02-12T01:50:55;103345.91;;;16.75;100.00
19553;BME280;9420;50.876;7.012;2023-02-12T01:53:30;103336.97;;;16.06;100.00
19553;BME280;9420;50.876;7.012;2023-02-12T01:56:02;103336.97;;;16.06;100.00
19553;BME280;9420;50.876;7.012;2023-02-12T01:58:34;103347.59;;;16.06;100.00
19553;BME280;9420;50.876;7.012;2023-02-12T02:01:07;103346.59;;;16.19;100.00
19553;BME280;9420;50.876;7.012;2023-02-12T02:03:38;103341.84;;;16.43;100.00
19553;BME280;9420;50.876;7.012;2023-02-12T02:06:13;103337.03;;;16.00;100.00
19553;BME280;9420;50.876;7.012;2023-02-12T02:08:41;103338.72;;;16.07;100.00
19553;BME280;9420;50.876;7.012;2023-02-12T02:11:09;103340.47;;;16.82;100.00
19553;BME280;9420;50.876;7.012;2023-02-12T02:13:53;103340.34;;;16.20;100.00
19553;BME280;9420;50.876;7.012;2023-02-12T02:16:42;103335.28;;;15.99;100.00
19553;BME280;9420;50.876;7.012;2023-02-12T02:19:29;103338.97;;;15.84;100.00
19553;BME280;9420;50.876;7.012;2023-02-12T02:22:18;103340.78;;;15.77;100.00
19553;BME280;9420;50.876;7.012;2023-02-12T02:25:42;103341.22;;;16.22;100.00
19553;BME280;9420;50.876;7.012;2023-02-12T02:28:45;103341.84;;;15.58;100.00
19553;BME280;9420;50.876;7.012;2023-02-12T02:31:25;103345.44;;;15.56;100.00
19553;BME280;9420;50.876;7.012;2023-02-12T02:34:02;103340.97;;;15.59;100.00
19553;BME280;9420;50.876;7.012;2023-02-12T02:36:43;103325.81;;;15.72;100.00
19553;BME280;9420;50.876;7.012;2023-02-12T02:39:18;103323.22;;;15.64;100.00
19553;BME280;9420;50.876;7.012;2023-02-12T02:41:54;103327.41;;;15.89;100.00
19553;BME280;9420;50.876;7.012;2023-02-12T02:44:31;103327.38;;;15.93;100.00
19553;BME280;9420;50.876;7.012;2023-02-12T02:47:07;103325.63;;;15.88;100.00
19553;BME280;9420;50.876;7.012;2023-02-12T02:49:43;103326.28;;;16.12;100.00
19553;BME280;9420;50.876;7.012;2023-02-12T02:52:17;103324.69;;;15.96;100.00
19553;BME280;9420;50.876;7.012;2023-02-12T02:54:51;103319.38;;;15.93;100.00
19553;BME280;9420;50.876;7.012;2023-02-12T02:57:26;103326.50;;;15.90;100.00
19553;BME280;9420;50.876;7.012;2023-02-12T03:00:04;103324.84;;;15.77;100.00
19553;BME280;9420;50.876;7.012;2023-02-12T03:02:39;103330.16;;;15.77;100.00
19553;BME280;9420;50.876;7.012;2023-02-12T03:05:16;103323.72;;;16.04;100.00
19553;BME280;9420;50.876;7.012;2023-02-12T03:07:51;103323.66;;;16.07;100.00
19553;BME280;9420;50.876;7.012;2023-02-12T03:10:24;103326.41;;;16.00;100.00
19553;BME280;9420;50.876;7.012;2023-02-12T03:13:04;103326.34;;;16.06;100.00
19553;BME280;9420;50.876;7.012;2023-02-12T03:15:38;103322.84;;;16.01;100.00
19553;BME280;9420;50.876;7.012;2023-02-12T03:18:15;103326.44;;;15.97;100.00
19553;BME280;9420;50.876;7.012;2023-02-12T03:20:50;103319.25;;;16.05;100.00
19553;BME280;9420;50.876;7.012;2023-02-12T03:23:27;103325.50;;;16.02;100.00
19553;BME280;9420;50.876;7.012;2023-02-12T03:26:04;103325.53;;;15.96;100.00
19553;BME280;9420;50.876;7.012;2023-02-12T03:28:34;103324.84;;;15.77;100.00
19553;BME280;9420;50.876;7.012;2023-02-12T03:31:14;103321.31;;;15.78;100.00
19553;BME280;9420;50.876;7.012;2023-02-12T03:33:52;103328.34;;;15.82;100.00
19553;BME280;9420;50.876;7.012;2023-02-12T03:36:37;103323.03;;;15.82;100.00
19553;BME280;9420;50.876;7.012;2023-02-12T03:39:14;103322.19;;;15.80;100.00
19553;BME280;9420;50.876;7.012;2023-02-12T03:41:49;103321.50;;;15.59;100.00
19553;BME280;9420;50.876;7.012;2023-02-12T03:44:37;103319.53;;;15.77;100.00
19553;BME280;9420;50.876;7.012;2023-02-12T03:47:18;103317.78;;;15.76;100.00
19553;BME280;9420;50.876;7.012;2023-02-12T03:50:01;103315.94;;;15.84;100.00
19553;BME280;9420;50.876;7.012;2023-02-12T03:52:33;103319.53;;;15.77;100.00
19553;BME280;9420;50.876;7.012;2023-02-12T03:55:02;103321.25;;;15.81;100.00
19553;BME280;9420;50.876;7.012;2023-02-12T03:57:35;103324.78;;;15.83;100.00
19553;BME280;9420;50.876;7.012;2023-02-12T04:00:10;103314.16;;;15.83;100.00
19553;BME280;9420;50.876;7.012;2023-02-12T04:02:39;103307.13;;;15.79;100.00
19553;BME280;9420;50.876;7.012;2023-02-12T04:05:17;103318.56;;;15.86;100.00
19553;BME280;9420;50.876;7.012;2023-02-12T04:07:45;103317.78;;;15.76;100.00
19553;BME280;9420;50.876;7.012;2023-02-12T04:10:13;103328.41;;;15.76;100.00
19553;BME280;9420;50.876;7.012;2023-02-12T04:12:47;103330.16;;;15.77;100.00
19553;BME280;9420;50.876;7.012;2023-02-12T04:15:47;103327.56;;;15.71;100.00
19553;BME280;9420;50.876;7.012;2023-02-12T04:18:20;103333.66;;;15.82;100.00
19553;BME280;9420;50.876;7.012;2023-02-12T04:21:06;103329.31;;;15.74;100.00
19553;BME280;9420;50.876;7.012;2023-02-12T04:23:47;103337.28;;;15.75;100.00
19553;BME280;9420;50.876;7.012;2023-02-12T04:26:32;103329.34;;;15.72;100.00
19553;BME280;9420;50.876;7.012;2023-02-12T04:29:20;103336.41;;;15.75;100.00
19553;BME280;9420;50.876;7.012;2023-02-12T04:31:57;103333.66;;;15.85;100.00
19553;BME280;9420;50.876;7.012;2023-02-12T04:34:34;103331.97;;;15.75;100.00
19553;BME280;9420;50.876;7.012;2023-02-12T04:37:11;103342.59;;;15.77;100.00
19553;BME280;9420;50.876;7.012;2023-02-12T04:39:43;103344.38;;;15.76;100.00
19553;BME280;9420;50.876;7.012;2023-02-12T04:42:11;103348.88;;;15.65;100.00
19553;BME280;9420;50.876;7.012;2023-02-12T04:44:41;103348.06;;;15.60;100.00
19553;BME280;9420;50.876;7.012;2023-02-12T04:47:11;103354.22;;;15.64;100.00
19553;BME280;9420;50.876;7.012;2023-02-12T04:49:38;103353.41;;;15.54;100.00
19553;BME280;9420;50.876;7.012;2023-02-12T04:52:09;103340.00;;;18.16;89.38
19553;BME280;9420;50.876;7.012;2023-02-12T04:54:37;103356.50;;;16.02;98.26
19553;BME280;9420;50.876;7.012;2023-02-12T04:57:04;103351.00;;;16.18;100.00
19553;BME280;9420;50.876;7.012;2023-02-12T04:59:31;103353.06;;;15.94;100.00
19553;BME280;9420;50.876;7.012;2023-02-12T05:01:58;103353.88;;;15.99;100.00
19553;BME280;9420;50.876;7.012;2023-02-12T05:04:27;103354.13;;;15.74;100.00
19553;BME280;9420;50.876;7.012;2023-02-12T05:06:54;103348.75;;;15.80;100.00
19553;BME280;9420;50.876;7.012;2023-02-12T05:09:23;103353.16;;;15.83;100.00
19553;BME280;9420;50.876;7.012;2023-02-12T05:11:50;103350.66;;;15.65;100.00
19553;BME280;9420;50.876;7.012;2023-02-12T05:14:17;103355.03;;;15.72;100.00
19553;BME280;9420;50.876;7.012;2023-02-12T05:16:44;103355.88;;;15.77;100.00
19553;BME280;9420;50.876;7.012;2023-02-12T05:19:11;103358.50;;;15.78;100.00
19553;BME280;9420;50.876;7.012;2023-02-12T05:21:38;103350.47;;;15.87;100.00
19553;BME280;9420;50.876;7.012;2023-02-12T05:24:06;103355.84;;;15.78;100.00
19553;BME280;9420;50.876;7.012;2023-02-12T05:26:35;103358.53;;;15.75;100.00
19553;BME280;9420;50.876;7.012;2023-02-12T05:29:03;103349.75;;;15.67;100.00
19553;BME280;9420;50.876;7.012;2023-02-12T05:31:30;103351.28;;;15.93;100.00
19553;BME280;9420;50.876;7.012;2023-02-12T05:33:57;103359.50;;;15.68;100.00
19553;BME280;9420;50.876;7.012;2023-02-12T05:36:24;103363.28;;;15.34;100.00
19553;BME280;9420;50.876;7.012;2023-02-12T05:38:56;103363.34;;;15.24;100.00
19553;BME280;9420;50.876;7.012;2023-02-12T05:41:24;103360.63;;;15.34;100.00
19553;BME280;9420;50.876;7.012;2023-02-12T05:43:56;103358.91;;;15.29;100.00
19553;BME280;9420;50.876;7.012;2023-02-12T05:46:23;103369.50;;;15.33;100.00
19553;BME280;9420;50.876;7.012;2023-02-12T05:48:50;103376.59;;;15.28;100.00
19553;BME280;9420;50.876;7.012;2023-02-12T05:51:21;103366.03;;;15.21;100.00
19553;BME280;9420;50.876;7.012;2023-02-12T05:53:52;103371.19;;;15.40;100.00
19553;BME280;9420;50.876;7.012;2023-02-12T05:56:25;103373.81;;;15.46;100.00
19553;BME280;9420;50.876;7.012;2023-02-12T05:58:56;103372.94;;;15.47;100.00
19553;BME280;9420;50.876;7.012;2023-02-12T06:01:28;103367.59;;;15.50;100.00
19553;BME280;9420;50.876;7.012;2023-02-12T06:03:57;103369.44;;;15.45;100.00
19553;BME280;9420;50.876;7.012;2023-02-12T06:06:25;103373.81;;;15.42;100.00
19553;BME280;9420;50.876;7.012;2023-02-12T06:08:53;103376.50;;;15.40;100.00
19553;BME280;9420;50.876;7.012;2023-02-12T06:11:21;103380.06;;;15.39;100.00
19553;BME280;9420;50.876;7.012;2023-02-12T06:13:48;103380.03;;;15.42;100.00
19553;BME280;9420;50.876;7.012;2023-02-12T06:16:19;103370.31;;;15.46;100.00
19553;BME280;9420;50.876;7.012;2023-02-12T06:18:48;103378.28;;;15.38;100.00
19553;BME280;9420;50.876;7.012;2023-02-12T06:21:17;103376.47;;;15.46;100.00
19553;BME280;9420;50.876;7.012;2023-02-12T06:23:47;103373.00;;;15.35;100.00
19553;BME280;9420;50.876;7.012;2023-02-12T06:26:16;103378.28;;;15.44;100.00
19553;BME280;9420;50.876;7.012;2023-02-12T06:28:44;103377.09;;;15.78;100.00
19553;BME280;9420;50.876;7.012;2023-02-12T06:31:22;103381.75;;;15.52;100.00
19553;BME280;9420;50.876;7.012;2023-02-12T06:33:55;103380.94;;;15.44;100.00
19553;BME280;9420;50.876;7.012;2023-02-12T06:36:23;103380.97;;;15.34;100.00
19553;BME280;9420;50.876;7.012;2023-02-12T06:38:54;103377.41;;;15.36;100.00
19553;BME280;9420;50.876;7.012;2023-02-12T06:41:25;103373.06;;;15.26;100.00
19553;BME280;9420;50.876;7.012;2023-02-12T06:43:56;103368.56;;;15.36;100.00
19553;BME280;9420;50.876;7.012;2023-02-12T06:46:29;103374.91;;;15.18;100.00
19553;BME280;9420;50.876;7.012;2023-02-12T06:49:02;103380.88;;;15.52;100.00
19553;BME280;9420;50.876;7.012;2023-02-12T06:51:30;103390.56;;;15.57;100.00
19553;BME280;9420;50.876;7.012;2023-02-12T06:54:00;103386.22;;;15.47;100.00
19553;BME280;9420;50.876;7.012;2023-02-12T06:56:27;103387.00;;;15.61;100.00
19553;BME280;9420;50.876;7.012;2023-02-12T06:58:58;103392.97;;;15.87;100.00
19553;BME280;9420;50.876;7.012;2023-02-12T07:01:29;103396.34;;;16.05;100.00
19553;BME280;9420;50.876;7.012;2023-02-12T07:04:06;103406.03;;;16.09;100.00
19553;BME280;9420;50.876;7.012;2023-02-12T07:06:38;103393.78;;;15.96;100.00
19553;BME280;9420;50.876;7.012;2023-02-12T07:09:06;103401.72;;;16.00;100.00
19553;BME280;9420;50.876;7.012;2023-02-12T07:11:35;103407.88;;;16.04;100.00
19553;BME280;9420;50.876;7.012;2023-02-12T07:14:06;103402.69;;;15.92;100.00
19553;BME280;9420;50.876;7.012;2023-02-12T07:16:35;103410.63;;;15.93;100.00
19553;BME280;9420;50.876;7.012;2023-02-12T07:19:05;103411.53;;;15.90;100.00
19553;BME280;9420;50.876;7.012;2023-02-12T07:21:43;103417.53;;;16.12;100.00
19553;BME280;9420;50.876;7.012;2023-02-12T07:24:15;103415.69;;;16.20;100.00
19553;BME280;9420;50.876;7.012;2023-02-12T07:26:43;103425.69;;;15.96;100.00
19553;BME280;9420;50.876;7.012;2023-02-12T07:29:14;103417.44;;;16.20;100.00
19553;BME280;9420;50.876;7.012;2023-02-12T07:31:44;103421.88;;;16.21;100.00
19553;BME280;9420;50.876;7.012;2023-02-12T07:34:14;103421.84;;;16.22;100.00
19553;BME280;9420;50.876;7.012;2023-02-12T07:36:47;103425.44;;;16.20;100.00
19553;BME280;9420;50.876;7.012;2023-02-12T07:39:15;103419.44;;;16.00;100.00
19553;BME280;9420;50.876;7.012;2023-02-12T07:41:43;103424.59;;;16.16;100.00
19553;BME280;9420;50.876;7.012;2023-02-12T07:44:13;103426.22;;;16.29;98.95
19553;BME280;9420;50.876;7.012;2023-02-12T07:46:47;103425.41;;;16.23;99.30
19553;BME280;9420;50.876;7.012;2023-02-12T07:49:18;103423.69;;;16.19;99.53
19553;BME280;9420;50.876;7.012;2023-02-12T07:51:51;103424.69;;;16.03;100.00
19553;BME280;9420;50.876;7.012;2023-02-12T07:54:24;103433.50;;;16.12;100.00
19553;BME280;9420;50.876;7.012;2023-02-12T07:56:55;103431.69;;;16.14;100.00
19553;BME280;9420;50.876;7.012;2023-02-12T07:59:26;103436.25;;;15.99;100.00
19553;BME280;9420;50.876;7.012;2023-02-12T08:01:56;103445.88;;;16.15;100.00
19553;BME280;9420;50.876;7.012;2023-02-12T08:04:26;103442.13;;;16.32;100.00
19553;BME280;9420;50.876;7.012;2023-02-12T08:06:55;103430.47;;;16.50;99.94
19553;BME280;9420;50.876;7.012;2023-02-12T08:09:26;103439.31;;;16.47;99.26
19553;BME280;9420;50.876;7.012;2023-02-12T08:11:55;103443.09;;;16.27;100.00
19553;BME280;9420;50.876;7.012;2023-02-12T08:14:25;103437.72;;;16.33;100.00
19553;BME280;9420;50.876;7.012;2023-02-12T08:16:57;103446.56;;;16.32;100.00
19553;BME280;9420;50.876;7.012;2023-02-12T08:19:29;103437.63;;;16.42;100.00
19553;BME280;9420;50.876;7.012;2023-02-12T08:21:58;103443.09;;;16.24;100.00
19553;BME280;9420;50.876;7.012;2023-02-12T08:24:28;103444.69;;;16.43;100.00
19553;BME280;9420;50.876;7.012;2023-02-12T08:26:58;103436.69;;;16.43;100.00
19553;BME280;9420;50.876;7.012;2023-02-12T08:29:28;103445.63;;;16.39;100.00
19553;BME280;9420;50.876;7.012;2023-02-12T08:32:02;103438.59;;;16.33;100.00
19553;BME280;9420;50.876;7.012;2023-02-12T08:34:33;103449.56;;;16.82;98.68
19553;BME280;9420;50.876;7.012;2023-02-12T08:37:04;103448.56;;;16.94;98.24
19553;BME280;9420;50.876;7.012;2023-02-12T08:39:34;103451.19;;;16.95;98.28
19553;BME280;9420;50.876;7.012;2023-02-12T08:42:02;103453.19;;;16.78;99.44
19553;BME280;9420;50.876;7.012;2023-02-12T08:44:32;103459.59;;;17.32;96.34
19553;BME280;9420;50.876;7.012;2023-02-12T08:47:02;103457.16;;;17.75;94.17
19553;BME280;9420;50.876;7.012;2023-02-12T08:49:31;103457.84;;;17.29;95.40
19553;BME280;9420;50.876;7.012;2023-02-12T08:51:59;103457.06;;;17.20;96.27
19553;BME280;9420;50.876;7.012;2023-02-12T08:54:29;103454.22;;;17.33;96.06
19553;BME280;9420;50.876;7.012;2023-02-12T08:57:00;103458.56;;;17.39;94.74
19553;BME280;9420;50.876;7.012;2023-02-12T08:59:28;103460.72;;;17.13;96.41
19553;BME280;9420;50.876;7.012;2023-02-12T09:01:57;103457.34;;;16.99;97.31
19553;BME280;9420;50.876;7.012;2023-02-12T09:04:30;103450.06;;;17.14;96.93
19553;BME280;9420;50.876;7.012;2023-02-12T09:07:01;103447.72;;;16.89;98.96
19553;BME280;9420;50.876;7.012;2023-02-12T09:09:30;103452.03;;;17.00;98.68
19553;BME280;9420;50.876;7.012;2023-02-12T09:11:59;103459.25;;;16.89;98.84
19553;BME280;9420;50.876;7.012;2023-02-12T09:14:29;103454.22;;;17.33;97.27
19553;BME280;9420;50.876;7.012;2023-02-12T09:16:56;103457.75;;;17.35;96.31
19553;BME280;9420;50.876;7.012;2023-02-12T09:19:25;103457.75;;;17.35;95.79
19553;BME280;9420;50.876;7.012;2023-02-12T09:21:54;103458.63;;;17.34;96.67
19553;BME280;9420;50.876;7.012;2023-02-12T09:24:23;103454.97;;;17.44;96.60
19553;BME280;9420;50.876;7.012;2023-02-12T09:26:52;103458.69;;;17.89;94.75
19553;BME280;9420;50.876;7.012;2023-02-12T09:29:20;103450.66;;;17.92;92.95
19553;BME280;9420;50.876;7.012;2023-02-12T09:31:47;103451.44;;;17.99;92.79
19553;BME280;9420;50.876;7.012;2023-02-12T09:34:15;103460.47;;;17.89;93.33
19553;BME280;9420;50.876;7.012;2023-02-12T09:36:44;103458.44;;;18.04;92.28
19553;BME280;9420;50.876;7.012;2023-02-12T09:39:11;103457.69;;;17.98;92.13
19553;BME280;9420;50.876;7.012;2023-02-12T09:42:14;103463.06;;;17.93;92.44
19553;BME280;9420;50.876;7.012;2023-02-12T09:44:50;103452.81;;;18.21;91.86
19553;BME280;9420;50.876;7.012;2023-02-12T09:47:31;103451.59;;;17.90;92.52
19553;BME280;9420;50.876;7.012;2023-02-12T09:50:38;103452.91;;;18.16;91.98
19553;BME280;9420;50.876;7.012;2023-02-12T09:53:14;103453.63;;;18.24;91.42
19553;BME280;9420;50.876;7.012;2023-02-12T09:55:42;103459.94;;;18.22;91.46
19553;BME280;9420;50.876;7.012;2023-02-12T09:58:27;103455.84;;;18.50;89.92
19553;BME280;9420;50.876;7.012;2023-02-12T10:00:55;103465.63;;;18.01;91.42
19553;BME280;9420;50.876;7.012;2023-02-12T10:03:26;103466.78;;;18.35;90.97
19553;BME280;9420;50.876;7.012;2023-02-12T10:06:01;103461.78;;;18.66;89.51
19553;BME280;9420;50.876;7.012;2023-02-12T10:09:00;103452.72;;;18.73;88.82
19553;BME280;9420;50.876;7.012;2023-02-12T10:11:54;103466.66;;;18.41;90.44
19553;BME280;9420;50.876;7.012;2023-02-12T10:14:45;103467.81;;;18.75;89.21
19553;BME280;9420;50.876;7.012;2023-02-12T10:17:28;103472.03;;;18.40;90.11
19553;BME280;9420;50.876;7.012;2023-02-12T10:20:33;103470.25;;;18.40;91.16
19553;BME280;9420;50.876;7.012;2023-02-12T10:23:24;103450.03;;;20.27;86.04
19553;BME280;9420;50.876;7.012;2023-02-12T10:26:02;103457.25;;;19.12;87.10
19553;BME280;9420;50.876;7.012;2023-02-12T10:28:36;103470.22;;;18.89;89.02
19553;BME280;9420;50.876;7.012;2023-02-12T10:31:12;103469.31;;;19.30;88.27
19553;BME280;9420;50.876;7.012;2023-02-12T10:33:45;103461.38;;;19.27;85.44
19553;BME280;9420;50.876;7.012;2023-02-12T10:36:26;103465.53;;;19.41;85.02
19553;BME280;9420;50.876;7.012;2023-02-12T10:39:05;103464.44;;;19.87;82.48
19553;BME280;9420;50.876;7.012;2023-02-12T10:41:46;103462.88;;;19.40;83.62
19553;BME280;9420;50.876;7.012;2023-02-12T10:44:15;103456.81;;;20.05;80.66
19553;BME280;9420;50.876;7.012;2023-02-12T10:46:43;103459.72;;;19.96;83.31
19553;BME280;9420;50.876;7.012;2023-02-12T10:49:14;103460.44;;;20.04;81.21
19553;BME280;9420;50.876;7.012;2023-02-12T10:52:02;103447.59;;;19.81;82.25
19553;BME280;9420;50.876;7.012;2023-02-12T10:54:41;103440.59;;;20.11;81.79
19553;BME280;9420;50.876;7.012;2023-02-12T10:57:22;103444.53;;;19.98;80.12
19553;BME280;9420;50.876;7.012;2023-02-12T10:59:53;103436.38;;;19.67;79.94
19553;BME280;9420;50.876;7.012;2023-02-12T11:02:26;103452.25;;;19.75;79.67
19553;BME280;9420;50.876;7.012;2023-02-12T11:04:57;103445.44;;;19.97;78.57
19553;BME280;9420;50.876;7.012;2023-02-12T11:07:26;103442.97;;;19.53;81.42
19553;BME280;9420;50.876;7.012;2023-02-12T11:09:56;103438.72;;;19.81;79.92
19553;BME280;9420;50.876;7.012;2023-02-12T11:12:33;103432.91;;;19.99;78.98
19553;BME280;9420;50.876;7.012;2023-02-12T11:15:12;103436.34;;;19.69;78.55
19553;BME280;9420;50.876;7.012;2023-02-12T11:17:44;103431.28;;;19.92;78.89
19553;BME280;9420;50.876;7.012;2023-02-12T11:20:24;103431.16;;;19.98;78.77
19553;BME280;9420;50.876;7.012;2023-02-12T11:22:57;103428.28;;;20.06;77.94
19553;BME280;9420;50.876;7.012;2023-02-12T11:25:27;103429.31;;;20.00;76.54
19553;BME280;9420;50.876;7.012;2023-02-12T11:28:05;103420.53;;;19.95;76.71
19553;BME280;9420;50.876;7.012;2023-02-12T11:30:51;103419.75;;;20.25;77.82
19553;BME280;9420;50.876;7.012;2023-02-12T11:33:28;103422.28;;;19.62;78.95
19553;BME280;9420;50.876;7.012;2023-02-12T11:36:00;103422.22;;;19.64;79.84
19553;BME280;9420;50.876;7.012;2023-02-12T11:38:34;103415.81;;;20.38;76.77
19553;BME280;9420;50.876;7.012;2023-02-12T11:41:16;103408.72;;;20.37;75.90
19553;BME280;9420;50.876;7.012;2023-02-12T11:43:50;103410.28;;;20.44;75.74
19553;BME280;9420;50.876;7.012;2023-02-12T11:46:26;103396.53;;;22.23;69.21
19553;BME280;9420;50.876;7.012;2023-02-12T11:48:56;103395.50;;;22.50;64.69
19553;BME280;9420;50.876;7.012;2023-02-12T11:51:28;103408.31;;;19.85;72.81
19553;BME280;9420;50.876;7.012;2023-02-12T11:54:00;103399.06;;;19.98;74.88
19553;BME280;9420;50.876;7.012;2023-02-12T11:56:42;103396.72;;;20.18;75.49
19553;BME280;9420;50.876;7.012;2023-02-12T11:59:28;103394.53;;;19.66;77.20
19553;BME280;9420;50.876;7.012;2023-02-12T12:02:07;103399.16;;;19.60;78.69
19553;BME280;9420;50.876;7.012;2023-02-12T12:04:46;103386.94;;;19.85;78.83
19553;BME280;9420;50.876;7.012;2023-02-12T12:07:22;103381.00;;;20.38;73.68
19553;BME280;9420;50.876;7.012;2023-02-12T12:09:59;103372.16;;;20.36;73.47
19553;BME280;9420;50.876;7.012;2023-02-12T12:12:37;103380.28;;;20.33;74.95
19553;BME280;9420;50.876;7.012;2023-02-12T12:15:16;103377.69;;;19.97;77.04
19553;BME280;9420;50.876;7.012;2023-02-12T12:18:13;103376.78;;;20.31;74.76
19553;BME280;9420;50.876;7.012;2023-02-12T12:21:14;103371.34;;;20.64;73.44
19553;BME280;9420;50.876;7.012;2023-02-12T12:23:51;103368.72;;;19.99;74.06
19553;BME280;9420;50.876;7.012;2023-02-12T12:26:24;103370.78;;;19.88;75.22
19553;BME280;9420;50.876;7.012;2023-02-12T12:29:05;103371.72;;;20.19;73.69
19553;BME280;9420;50.876;7.012;2023-02-12T12:31:38;103352.56;;;20.36;73.85
19553;BME280;9420;50.876;7.012;2023-02-12T12:34:10;103358.06;;;20.61;72.30
19553;BME280;9420;50.876;7.012;2023-02-12T12:37:18;103354.56;;;20.88;69.72
19553;BME280;9420;50.876;7.012;2023-02-12T12:40:19;103349.75;;;20.70;68.32
19553;BME280;9420;50.876;7.012;2023-02-12T12:43:01;103348.19;;;20.63;71.88
19553;BME280;9420;50.876;7.012;2023-02-12T12:46:21;103333.78;;;20.37;72.02
19553;BME280;9420;50.876;7.012;2023-02-12T12:52:25;103335.81;;;20.88;67.97
19553;BME280;9420;50.876;7.012;2023-02-12T12:55:20;103335.97;;;20.54;71.17
19553;BME280;9420;50.876;7.012;2023-02-12T12:58:06;103327.66;;;20.63;69.86
19553;BME280;9420;50.876;7.012;2023-02-12T13:01:00;103319.31;;;21.29;69.37
19553;BME280;9420;50.876;7.012;2023-02-12T13:03:51;103318.78;;;21.18;68.22
19553;BME280;9420;50.876;7.012;2023-02-12T13:06:45;103320.28;;;20.70;67.96
19553;BME280;9420;50.876;7.012;2023-02-12T13:09:45;103316.16;;;21.16;67.70
19553;BME280;9420;50.876;7.012;2023-02-12T13:12:44;103309.72;;;20.94;68.12
19553;BME280;9420;50.876;7.012;2023-02-12T13:15:28;103304.38;;;21.48;68.78
19553;BME280;9420;50.876;7.012;2023-02-12T13:18:08;103301.06;;;22.16;65.11
19553;BME280;9420;50.876;7.012;2023-02-12T13:20:46;103296.25;;;22.00;64.04
19553;BME280;9420;50.876;7.012;2023-02-12T13:23:28;103300.03;;;21.44;66.80
19553;BME280;9420;50.876;7.012;2023-02-12T13:26:11;103313.53;;;21.15;68.28
19553;BME280;9420;50.876;7.012;2023-02-12T13:28:47;103309.47;;;21.02;68.96
19553;BME280;9420;50.876;7.012;2023-02-12T13:31:21;103295.44;;;21.72;66.13
19553;BME280;9420;50.876;7.012;2023-02-12T13:33:53;103297.34;;;21.18;68.23
19553;BME280;9420;50.876;7.012;2023-02-12T13:36:21;103288.22;;;21.74;67.26